createdAt,value
2023-01-06T00:00:42.317Z,31.38
2023-01-06T00:03:10.408Z,26.10
2023-01-06T00:05:37.209Z,28.15
2023-01-06T00:08:04.321Z,29.73
2023-01-06T00:10:31.165Z,31.98
2023-01-06T00:12:58.202Z,30.88
2023-01-06T00:15:25.096Z,29.10
2023-01-06T00:17:51.852Z,35.33
2023-01-06T00:20:18.712Z,28.23
2023-01-06T00:22:45.553Z,34.03
2023-01-06T00:25:12.514Z,32.58
2023-01-06T00:27:40.281Z,31.15
2023-01-06T00:30:08.100Z,30.33
2023-01-06T00:32:35.581Z,34.40
2023-01-06T00:35:02.843Z,34.28
2023-01-06T00:37:29.788Z,35.95
2023-01-06T00:39:56.777Z,38.00
2023-01-06T00:42:25.043Z,34.10
2023-01-06T00:44:52.146Z,32.15
2023-01-06T00:47:19.369Z,31.42
2023-01-06T00:49:46.264Z,29.52
2023-01-06T00:52:13.771Z,31.77
2023-01-06T00:54:40.937Z,32.05
2023-01-06T00:57:08.196Z,37.72
2023-01-06T00:59:35.499Z,30.42
2023-01-06T01:02:02.921Z,31.52
2023-01-06T01:04:29.863Z,36.63
2023-01-06T01:06:57.032Z,30.95
2023-01-06T01:09:30.041Z,33.65
2023-01-06T01:12:13.004Z,31.60
2023-01-06T01:14:48.632Z,32.75
2023-01-06T01:17:27.359Z,34.88
2023-01-06T01:19:56.082Z,30.42
2023-01-06T01:22:24.473Z,31.15
2023-01-06T01:24:51.826Z,30.95
2023-01-06T01:27:19.152Z,35.15
2023-01-06T01:29:46.248Z,33.90
2023-01-06T01:32:13.074Z,38.08
2023-01-06T01:34:39.907Z,34.22
2023-01-06T01:37:06.922Z,30.98
2023-01-06T01:39:33.694Z,34.70
2023-01-06T01:42:00.956Z,27.70
2023-01-06T01:45:15.546Z,28.05
2023-01-06T01:47:53.640Z,29.08
2023-01-06T01:50:43.711Z,28.83
2023-01-06T01:53:15.673Z,28.83
2023-01-06T01:55:42.843Z,30.98
2023-01-06T01:58:36.506Z,26.83
2023-01-06T02:01:03.633Z,30.23
2023-01-06T02:03:30.477Z,32.25
2023-01-06T02:06:01.207Z,30.88
2023-01-06T02:08:38.371Z,31.33
2023-01-06T02:11:06.374Z,30.08
2023-01-06T02:13:35.842Z,39.42
2023-01-06T02:16:20.233Z,39.17
2023-01-06T02:19:04.055Z,35.03
2023-01-06T02:21:46.279Z,34.00
2023-01-06T02:24:44.117Z,36.08
2023-01-06T02:27:43.185Z,33.65
2023-01-06T02:30:40.428Z,35.70
2023-01-06T02:33:13.862Z,34.33
2023-01-06T02:36:05.476Z,32.88
2023-01-06T02:38:42.200Z,32.95
2023-01-06T02:41:37.625Z,34.65
2023-01-06T02:44:11.217Z,35.83
2023-01-06T02:46:47.530Z,36.17
2023-01-06T02:49:45.618Z,35.53
2023-01-06T02:52:34.146Z,37.50
2023-01-06T02:55:12.706Z,41.67
2023-01-06T02:57:45.827Z,41.28
2023-01-06T03:00:22.627Z,43.17
2023-01-06T03:02:57.880Z,36.90
2023-01-06T03:05:27.132Z,37.75
2023-01-06T03:07:55.455Z,40.83
2023-01-06T03:10:25.539Z,38.00
2023-01-06T03:13:15.723Z,39.33
2023-01-06T03:15:42.786Z,38.17
2023-01-06T03:18:10.096Z,42.25
2023-01-06T03:20:37.047Z,38.53
2023-01-06T03:23:03.953Z,34.25
2023-01-06T03:25:30.914Z,41.58
2023-01-06T03:27:57.743Z,36.08
2023-01-06T03:30:33.560Z,36.20
2023-01-06T03:33:08.349Z,35.33
2023-01-06T03:35:47.377Z,38.45
2023-01-06T03:38:47.693Z,38.58
2023-01-06T03:41:52.096Z,35.35
2023-01-06T03:44:53.777Z,35.35
2023-01-06T03:47:39.703Z,36.45
2023-01-06T03:50:18.280Z,30.63
2023-01-06T03:53:04.699Z,31.17
2023-01-06T03:55:36.758Z,34.78
2023-01-06T03:58:06.457Z,34.20
2023-01-06T04:00:38.035Z,29.55
2023-01-06T04:05:36.701Z,28.92
2023-01-06T04:08:03.709Z,31.65
2023-01-06T04:10:30.459Z,31.60
2023-01-06T04:12:57.517Z,32.08
2023-01-06T04:15:27.125Z,30.73
2023-01-06T04:17:53.918Z,30.77
2023-01-06T04:20:26.528Z,28.73
2023-01-06T04:22:54.753Z,30.23
2023-01-06T04:25:22.319Z,31.48
2023-01-06T04:27:49.755Z,30.52
2023-01-06T04:30:16.920Z,29.88
2023-01-06T04:32:43.932Z,27.13
2023-01-06T04:35:11.087Z,28.88
2023-01-06T04:37:37.878Z,43.35
2023-01-06T04:40:05.471Z,75.60
2023-01-06T04:42:52.228Z,77.03
2023-01-06T04:45:19.097Z,43.30
2023-01-06T04:47:46.032Z,42.35
2023-01-06T04:50:12.778Z,30.60
2023-01-06T04:52:39.803Z,27.23
2023-01-06T04:55:06.884Z,39.33
2023-01-06T04:57:33.682Z,190.07
2023-01-06T05:00:00.556Z,58.72
2023-01-06T05:02:27.394Z,107.60
2023-01-06T05:04:54.178Z,157.48
2023-01-06T05:07:21.049Z,86.63
2023-01-06T05:09:47.787Z,43.05
2023-01-06T05:12:14.576Z,41.47
2023-01-06T05:14:41.420Z,33.55
2023-01-06T05:17:08.208Z,259.13
2023-01-06T05:19:34.945Z,61.35
2023-01-06T05:22:01.725Z,33.70
2023-01-06T05:24:28.561Z,124.75
2023-01-06T05:26:55.412Z,33.10
2023-01-06T05:29:22.157Z,28.17
2023-01-06T05:31:48.998Z,28.73
2023-01-06T05:34:15.877Z,27.88
2023-01-06T05:36:42.695Z,35.35
2023-01-06T05:39:09.481Z,36.50
2023-01-06T05:41:36.530Z,33.70
2023-01-06T05:44:03.426Z,33.85
2023-01-06T05:46:30.252Z,35.22
2023-01-06T05:48:57.088Z,51.67
2023-01-06T05:51:23.870Z,55.78
2023-01-06T05:53:50.673Z,570.20
2023-01-06T05:56:19.827Z,387.85
2023-01-06T05:58:48.943Z,192.25
2023-01-06T06:01:22.531Z,55.78
2023-01-06T06:03:50.474Z,42.47
2023-01-06T06:06:18.263Z,33.63
2023-01-06T06:08:45.279Z,34.75
2023-01-06T06:11:14.805Z,34.45
2023-01-06T06:13:56.202Z,32.33
2023-01-06T06:16:26.715Z,57.90
2023-01-06T06:19:00.039Z,161.95
2023-01-06T06:21:29.354Z,78.13
2023-01-06T06:23:58.631Z,54.22
2023-01-06T06:26:26.015Z,52.10
2023-01-06T06:28:52.883Z,37.22
2023-01-06T06:31:23.152Z,48.17
2023-01-06T06:33:54.330Z,77.63
2023-01-06T06:36:21.648Z,37.70
2023-01-06T06:38:50.422Z,34.67
2023-01-06T06:41:18.563Z,32.55
2023-01-06T06:43:45.614Z,34.95
2023-01-06T06:46:12.630Z,31.05
2023-01-06T06:48:39.875Z,35.90
2023-01-06T06:51:12.830Z,33.28
2023-01-06T06:53:39.995Z,33.33
2023-01-06T06:56:08.952Z,35.88
2023-01-06T06:58:37.133Z,35.58
2023-01-06T07:01:09.725Z,33.45
2023-01-06T07:03:36.631Z,32.05
2023-01-06T07:06:06.763Z,46.35
2023-01-06T07:08:33.821Z,34.78
2023-01-06T07:11:01.365Z,151.00
2023-01-06T07:13:28.460Z,76.03
2023-01-06T07:15:55.614Z,44.53
2023-01-06T07:18:22.608Z,40.85
2023-01-06T07:20:53.192Z,54.50
2023-01-06T07:23:21.319Z,35.53
2023-01-06T07:25:56.219Z,43.20
2023-01-06T07:28:23.568Z,41.80
2023-01-06T07:30:51.000Z,30.75
2023-01-06T07:33:18.233Z,61.30
2023-01-06T07:35:45.005Z,78.05
2023-01-06T07:38:12.278Z,49.60
2023-01-06T07:40:39.419Z,33.38
2023-01-06T07:43:08.293Z,31.02
2023-01-06T07:45:35.818Z,34.10
2023-01-06T07:48:03.395Z,29.33
2023-01-06T07:50:30.933Z,30.48
2023-01-06T07:52:59.224Z,30.38
2023-01-06T07:55:26.124Z,30.17
2023-01-06T07:57:53.334Z,27.65
2023-01-06T08:00:20.823Z,26.08
2023-01-06T08:02:47.640Z,26.40
2023-01-06T08:05:14.725Z,22.40
2023-01-06T08:07:41.609Z,22.38
2023-01-06T08:10:08.805Z,24.30
2023-01-06T08:12:36.179Z,22.73
2023-01-06T08:15:03.664Z,23.77
2023-01-06T08:17:30.952Z,23.38
2023-01-06T08:19:57.791Z,20.63
2023-01-06T08:22:24.688Z,22.98
2023-01-06T08:24:51.452Z,21.70
2023-01-06T08:27:19.875Z,27.23
2023-01-06T08:29:47.279Z,28.10
2023-01-06T08:32:14.099Z,22.10
2023-01-06T08:34:40.971Z,25.95
2023-01-06T08:37:07.978Z,21.50
2023-01-06T08:39:34.910Z,26.63
2023-01-06T08:42:01.821Z,20.73
2023-01-06T08:44:28.609Z,20.20
2023-01-06T08:46:55.439Z,31.52
2023-01-06T08:49:22.167Z,24.65
2023-01-06T08:51:48.907Z,41.72
2023-01-06T08:54:15.675Z,31.05
2023-01-06T08:56:44.813Z,35.28
2023-01-06T08:59:15.635Z,66.97
2023-01-06T09:01:42.932Z,47.38
2023-01-06T09:04:11.417Z,24.02
2023-01-06T09:06:38.703Z,20.42
2023-01-06T09:09:07.108Z,26.02
2023-01-06T09:11:34.250Z,22.95
2023-01-06T09:14:01.085Z,18.45
2023-01-06T09:16:27.929Z,21.83
2023-01-06T09:18:54.765Z,20.42
2023-01-06T09:21:23.456Z,22.08
2023-01-06T09:23:50.567Z,24.50
2023-01-06T09:26:19.037Z,21.58
2023-01-06T09:28:46.150Z,21.80
2023-01-06T09:31:13.184Z,25.40
2023-01-06T09:33:40.136Z,23.42
2023-01-06T09:36:07.592Z,26.02
2023-01-06T09:38:34.571Z,28.08
2023-01-06T09:41:20.214Z,30.48
2023-01-06T09:44:17.868Z,37.35
2023-01-06T09:46:48.761Z,25.80
2023-01-06T09:49:34.056Z,33.10
2023-01-06T09:52:12.467Z,22.35
2023-01-06T09:55:14.400Z,20.13
2023-01-06T09:57:48.858Z,17.10
2023-01-06T10:00:37.704Z,17.77
2023-01-06T10:03:05.781Z,14.95
2023-01-06T10:05:44.943Z,13.85
2023-01-06T10:08:36.050Z,17.65
2023-01-06T10:11:19.373Z,22.38
2023-01-06T10:14:11.474Z,20.17
2023-01-06T10:16:47.374Z,36.38
2023-01-06T10:19:27.357Z,18.80
2023-01-06T10:22:07.047Z,15.18
2023-01-06T10:24:41.672Z,10.98
2023-01-06T10:27:37.602Z,12.80
2023-01-06T10:30:17.631Z,10.85
2023-01-06T10:32:46.000Z,17.60
2023-01-06T10:35:16.441Z,22.25
2023-01-06T10:37:47.334Z,11.70
2023-01-06T10:40:26.431Z,12.40
2023-01-06T10:43:14.373Z,16.00
2023-01-06T10:45:46.756Z,13.15
2023-01-06T10:48:20.430Z,9.05
2023-01-06T10:50:47.735Z,15.45
2023-01-06T10:53:16.079Z,11.05
2023-01-06T10:55:52.131Z,13.55
2023-01-06T10:58:21.961Z,17.52
2023-01-06T11:01:08.981Z,21.63
2023-01-06T11:03:37.292Z,10.82
2023-01-06T11:06:26.600Z,13.65
2023-01-06T11:08:53.694Z,18.05
2023-01-06T11:11:28.940Z,13.05
2023-01-06T11:13:59.627Z,10.50
2023-01-06T11:16:30.019Z,8.15
2023-01-06T11:19:05.175Z,10.48
2023-01-06T11:21:46.988Z,11.82
2023-01-06T11:26:52.637Z,12.30
2023-01-06T11:29:26.780Z,10.65
2023-01-06T11:31:54.183Z,11.02
2023-01-06T11:34:27.475Z,13.68
2023-01-06T11:36:54.472Z,11.38
2023-01-06T11:39:29.745Z,9.55
2023-01-06T11:42:03.167Z,9.20
2023-01-06T11:44:36.510Z,9.05
2023-01-06T11:47:17.329Z,10.48
2023-01-06T11:49:51.461Z,10.33
2023-01-06T11:52:18.228Z,10.43
2023-01-06T11:54:58.551Z,15.82
2023-01-06T11:57:42.143Z,12.65
2023-01-06T12:00:31.465Z,14.23
2023-01-06T12:03:12.302Z,16.80
2023-01-06T12:06:07.208Z,39.20
2023-01-06T12:08:40.727Z,20.70
2023-01-06T12:11:45.919Z,11.73
2023-01-06T12:14:28.401Z,11.13
2023-01-06T12:16:59.152Z,12.05
2023-01-06T12:19:39.425Z,14.15
2023-01-06T12:22:18.419Z,33.45
2023-01-06T12:24:47.902Z,26.90
2023-01-06T12:27:26.159Z,14.20
2023-01-06T12:29:59.158Z,13.07
2023-01-06T12:32:29.304Z,18.70
2023-01-06T12:35:02.535Z,8.13
2023-01-06T12:37:42.874Z,5.70
2023-01-06T12:40:24.551Z,8.00
2023-01-06T12:45:56.618Z,4.82
2023-01-06T12:48:33.647Z,7.32
2023-01-06T12:51:11.668Z,7.03
2023-01-06T12:53:50.498Z,15.38
2023-01-06T12:56:51.883Z,10.40
2023-01-06T12:59:56.336Z,11.05
2023-01-06T13:02:32.194Z,8.13
2023-01-06T13:05:36.463Z,9.85
2023-01-06T13:08:18.647Z,7.78
2023-01-06T13:11:19.261Z,30.88
2023-01-06T13:13:58.252Z,17.98
2023-01-06T13:16:46.339Z,12.85
2023-01-06T13:19:20.809Z,12.15
2023-01-06T13:21:52.012Z,14.13
2023-01-06T13:24:38.034Z,27.95
2023-01-06T13:27:17.289Z,131.35
2023-01-06T13:30:08.861Z,39.08
2023-01-06T13:32:54.008Z,24.50
2023-01-06T13:35:32.745Z,22.13
2023-01-06T13:38:15.437Z,99.60
2023-01-06T13:40:45.468Z,12.73
2023-01-06T13:43:25.612Z,23.15
2023-01-06T13:46:00.395Z,22.70
2023-01-06T13:48:32.588Z,46.08
2023-01-06T13:51:05.584Z,18.80
2023-01-06T13:53:43.089Z,11.27
2023-01-06T13:56:12.681Z,11.73
2023-01-06T13:58:46.664Z,16.13
2023-01-06T14:01:19.661Z,58.97
2023-01-06T14:03:49.310Z,61.88
2023-01-06T14:06:22.231Z,63.75
2023-01-06T14:09:00.306Z,19.48
2023-01-06T14:11:36.419Z,42.47
2023-01-06T14:14:24.921Z,28.33
2023-01-06T14:16:54.709Z,10.88
2023-01-06T14:19:30.239Z,19.77
2023-01-06T14:22:22.235Z,12.27
2023-01-06T14:24:53.286Z,16.00
2023-01-06T14:27:48.514Z,12.32
2023-01-06T14:30:35.693Z,16.33
2023-01-06T14:33:05.415Z,13.75
2023-01-06T14:35:38.423Z,19.45
2023-01-06T14:38:13.388Z,14.82
2023-01-06T14:40:50.320Z,22.80
2023-01-06T14:43:29.216Z,15.20
2023-01-06T14:45:58.098Z,17.65
2023-01-06T14:48:29.214Z,13.40
2023-01-06T14:50:59.125Z,13.10
2023-01-06T14:53:52.141Z,12.52
2023-01-06T14:56:22.197Z,10.80
2023-01-06T14:58:49.177Z,8.90
2023-01-06T15:01:25.909Z,11.30
2023-01-06T15:03:56.221Z,9.35
2023-01-06T15:06:25.841Z,13.88
2023-01-06T15:08:52.975Z,12.07
2023-01-06T15:11:28.708Z,9.20
2023-01-06T15:13:57.064Z,14.88
2023-01-06T15:16:32.777Z,16.08
2023-01-06T15:19:00.266Z,14.38
2023-01-06T15:21:27.773Z,19.65
2023-01-06T15:23:55.440Z,18.80
2023-01-06T15:26:28.146Z,16.52
2023-01-06T15:29:03.865Z,16.50
2023-01-06T15:31:34.356Z,19.33
2023-01-06T15:34:09.567Z,19.77
2023-01-06T15:36:39.786Z,18.55
2023-01-06T15:39:11.841Z,21.27
2023-01-06T15:41:40.566Z,22.30
2023-01-06T15:44:37.622Z,25.95
2023-01-06T15:47:10.626Z,30.40
2023-01-06T15:49:41.096Z,152.20
2023-01-06T15:52:17.526Z,203.57
2023-01-06T15:54:46.659Z,47.08
2023-01-06T15:57:17.218Z,28.65
2023-01-06T15:59:57.078Z,31.50
2023-01-06T16:02:27.397Z,24.35
2023-01-06T16:04:54.724Z,30.98
2023-01-06T16:07:39.485Z,24.20
2023-01-06T16:10:31.418Z,18.83
2023-01-06T16:16:10.049Z,15.40
2023-01-06T16:18:38.343Z,20.25
2023-01-06T16:21:20.160Z,21.08
2023-01-06T16:26:24.783Z,19.10
2023-01-06T16:28:54.413Z,18.00
2023-01-06T16:31:38.314Z,17.25
2023-01-06T16:34:21.334Z,18.83
2023-01-06T16:36:53.965Z,14.73
2023-01-06T16:39:21.044Z,14.55
2023-01-06T16:41:59.973Z,15.35
2023-01-06T16:44:29.754Z,16.10
2023-01-06T16:46:58.242Z,13.73
2023-01-06T16:49:25.399Z,18.33
2023-01-06T16:51:54.798Z,15.55
2023-01-06T16:54:23.595Z,17.60
2023-01-06T16:56:52.370Z,22.40
2023-01-06T16:59:22.405Z,16.65
2023-01-06T17:01:49.372Z,14.40
2023-01-06T17:04:16.484Z,17.50
2023-01-06T17:06:45.967Z,17.42
2023-01-06T17:09:19.943Z,21.27
2023-01-06T17:11:48.869Z,23.80
2023-01-06T17:14:18.100Z,21.67
2023-01-06T17:16:45.919Z,104.18
2023-01-06T17:19:20.806Z,26.88
2023-01-06T17:21:49.156Z,31.23
2023-01-06T17:24:26.109Z,22.85
2023-01-06T17:26:59.983Z,31.45
2023-01-06T17:29:30.713Z,28.10
2023-01-06T17:32:01.431Z,26.13
2023-01-06T17:34:31.985Z,29.43
2023-01-06T17:37:15.820Z,30.38
2023-01-06T17:39:45.010Z,43.47
2023-01-06T17:42:11.695Z,63.95
2023-01-06T17:44:56.824Z,58.50
2023-01-06T17:47:23.576Z,53.28
2023-01-06T17:49:55.400Z,74.07
2023-01-06T17:52:32.629Z,57.25
2023-01-06T17:55:30.192Z,56.50
2023-01-06T17:57:59.195Z,55.15
2023-01-06T18:00:36.271Z,39.90
2023-01-06T18:03:07.200Z,32.22
2023-01-06T18:05:33.920Z,40.78
2023-01-06T18:08:06.626Z,39.33
2023-01-06T18:10:43.699Z,55.17
2023-01-06T18:13:17.779Z,85.40
2023-01-06T18:15:47.399Z,142.30
2023-01-06T18:18:16.761Z,107.10
2023-01-06T18:20:48.233Z,105.60
2023-01-06T18:23:22.389Z,88.55
2023-01-06T18:25:55.367Z,91.53
2023-01-06T18:28:22.767Z,96.38
2023-01-06T18:31:02.110Z,71.50
2023-01-06T18:33:29.991Z,57.90
2023-01-06T18:35:59.489Z,40.05
2023-01-06T18:38:35.327Z,35.08
2023-01-06T18:41:03.443Z,48.70
2023-01-06T18:43:31.272Z,36.85
2023-01-06T18:46:02.414Z,57.70
2023-01-06T18:48:34.420Z,136.30
2023-01-06T18:51:03.458Z,226.93
2023-01-06T18:53:30.871Z,215.50
2023-01-06T18:56:12.255Z,203.07
2023-01-06T18:58:57.728Z,189.02
2023-01-06T19:01:47.867Z,168.18
2023-01-06T19:04:26.532Z,151.90
2023-01-06T19:06:58.560Z,140.40
2023-01-06T19:09:35.591Z,120.88
2023-01-06T19:12:08.810Z,120.25
2023-01-06T19:14:48.591Z,128.77
2023-01-06T19:17:29.288Z,138.48
2023-01-06T19:20:00.451Z,110.47
2023-01-06T19:22:30.137Z,109.53
2023-01-06T19:25:24.017Z,96.95
2023-01-06T19:28:00.719Z,93.88
2023-01-06T19:30:32.335Z,74.45
2023-01-06T19:33:29.868Z,73.15
2023-01-06T19:36:06.717Z,63.40
2023-01-06T19:38:44.602Z,48.67
2023-01-06T19:41:22.161Z,47.35
2023-01-06T19:43:59.587Z,47.47
2023-01-06T19:46:30.095Z,83.75
2023-01-06T19:48:59.561Z,81.88
2023-01-06T19:51:34.400Z,102.13
2023-01-06T19:54:21.025Z,103.70
2023-01-06T19:56:50.433Z,97.38
2023-01-06T19:59:36.678Z,85.40
2023-01-06T20:02:10.589Z,88.47
2023-01-06T20:12:54.916Z,103.85
2023-01-06T20:15:22.581Z,71.45
2023-01-06T20:17:49.808Z,65.55
2023-01-06T20:20:16.987Z,63.95
2023-01-06T20:22:45.064Z,69.28
2023-01-06T20:25:12.339Z,66.32
2023-01-06T20:27:39.811Z,82.88
2023-01-06T20:30:07.246Z,89.95
2023-01-06T20:32:34.709Z,137.18
2023-01-06T20:35:02.619Z,105.88
2023-01-06T20:37:30.113Z,64.85
2023-01-06T20:39:57.489Z,124.78
2023-01-06T20:42:24.990Z,108.90
2023-01-06T20:44:52.263Z,93.75
2023-01-06T20:47:19.616Z,88.40
2023-01-06T20:49:47.273Z,84.63
2023-01-06T20:52:14.606Z,95.82
2023-01-06T20:54:42.115Z,123.45
2023-01-06T20:57:09.368Z,132.05
2023-01-06T20:59:36.574Z,123.05
2023-01-06T21:02:04.172Z,117.38
2023-01-06T21:04:34.282Z,133.82
2023-01-06T21:07:01.661Z,157.77
2023-01-06T21:09:29.583Z,121.82
2023-01-06T21:11:56.993Z,105.35
2023-01-06T21:14:24.267Z,98.25
2023-01-06T21:16:51.920Z,88.05
2023-01-06T21:19:19.285Z,77.97
2023-01-06T21:21:48.261Z,83.43
2023-01-06T21:24:15.534Z,75.68
2023-01-06T21:26:42.755Z,69.13
2023-01-06T21:29:10.010Z,72.72
2023-01-06T21:31:37.381Z,70.47
2023-01-06T21:34:04.437Z,68.18
2023-01-06T21:36:31.832Z,70.18
2023-01-06T21:38:59.023Z,65.70
2023-01-06T21:41:44.501Z,58.45
2023-01-06T21:44:13.543Z,56.90
2023-01-06T21:46:40.830Z,43.70
2023-01-06T21:49:07.840Z,41.28
2023-01-06T21:51:36.289Z,44.85
2023-01-06T21:54:04.844Z,46.10
2023-01-06T21:56:35.537Z,46.80
2023-01-06T21:59:03.191Z,56.25
2023-01-06T22:01:35.373Z,51.60
2023-01-06T22:04:09.788Z,54.65
2023-01-06T22:06:40.784Z,51.45
2023-01-06T22:09:09.144Z,50.65
2023-01-06T22:11:38.374Z,43.55
2023-01-06T22:14:06.108Z,31.55
2023-01-06T22:16:33.816Z,32.30
2023-01-06T22:19:01.166Z,30.30
2023-01-06T22:21:29.017Z,36.25
2023-01-06T22:23:57.853Z,38.92
2023-01-06T22:26:25.497Z,32.00
2023-01-06T22:28:52.687Z,27.55
2023-01-06T22:31:20.320Z,32.97
2023-01-06T22:33:47.544Z,37.92
2023-01-06T22:36:14.827Z,60.83
2023-01-06T22:38:42.111Z,75.22
2023-01-06T22:41:10.425Z,70.05
2023-01-06T22:43:37.956Z,62.00
2023-01-06T22:46:05.214Z,66.28
2023-01-06T22:48:32.491Z,63.65
2023-01-06T22:51:01.936Z,61.55
2023-01-06T22:53:30.516Z,110.05
2023-01-06T22:56:02.460Z,135.88
2023-01-06T22:58:30.404Z,111.13
2023-01-06T23:00:57.537Z,106.65
2023-01-06T23:03:25.147Z,94.30
2023-01-06T23:06:15.257Z,77.72
2023-01-06T23:08:58.542Z,97.13
2023-01-06T23:11:28.297Z,101.18
2023-01-06T23:13:57.723Z,95.07
2023-01-06T23:16:30.421Z,92.32
2023-01-06T23:18:57.754Z,91.07
2023-01-06T23:21:33.669Z,152.95
2023-01-06T23:24:01.442Z,147.43
2023-01-06T23:26:31.153Z,112.93
2023-01-06T23:28:58.339Z,82.78
2023-01-06T23:31:33.400Z,79.93
2023-01-06T23:34:04.164Z,67.78
2023-01-06T23:36:31.152Z,77.97
2023-01-06T23:38:59.151Z,62.20
2023-01-06T23:41:28.538Z,49.17
2023-01-06T23:43:56.528Z,59.45
2023-01-06T23:46:25.709Z,56.63
2023-01-06T23:48:53.039Z,46.63
2023-01-06T23:51:20.861Z,51.80
2023-01-06T23:53:47.674Z,54.53
2023-01-06T23:56:22.370Z,50.90
2023-01-06T23:58:51.842Z,54.08
